Tiempo atmosférico en la estación meteorológica de Andorra, Teruel (762 m.)



Fecha
DESCASC
Temp. máxima en grados centígrados (hora)
DESCASC
Temp. mínima en grados centígrados (hora)
DESCASC
Temp. media en grados centígrados
DESCASC
Racha de viento máxima en m/sg (hora)
DESCASC
Velocidad máxima media en intervalos de 10 minutos(hora)
DESCASC
Precipitaciones diarias en mm
DESCASC
Precipitaciones de 00:00 a 06:00 en mm
DESCASC
Precipitaciones de 06:00 a 12:00 en mm
DESCASC
Precipitaciones de 12:00 a 18:00 en mm
DESCASC
Precipitaciones de 18:00 a 24:00 en mm
DESCASC
14-12-2019 11.7 (00:00) 8 (21:40) 9.8 25 (00:40) 18.33 (00:40) 0 0 0 0 0
13-12-2019 15.5 (13:10) 10.3 (00:00) 12.9 30.56 (22:10) 24.72 (21:50) 0 0 0 0 0
12-12-2019 10.4 (23:40) 4.4 (04:10) 7.4 25.28 (19:20) 19.72 (19:10) 0 0 0 0 0
11-12-2019 11.4 (11:20) 4.2 (00:00) 7.8 21.11 (22:50) 16.39 (23:20) 0.4 0 0 0.4 0
10-12-2019 14.3 (15:20) 4.5 (06:00) 9.4 19.44 (07:30) 16.11 (07:30) 0 0 0 0 0
09-12-2019 10.6 (13:20) 5.2 (08:00) 7.9 22.5 (13:30) 16.11 (13:10) 0 0 0 0 0
08-12-2019 13.7 (15:50) 4.8 (00:00) 9.3 19.17 (22:40) 14.17 (23:50) 0.6 0 0 0 0.6
07-12-2019 11.6 (13:40) 4.8 (00:00) 8.2 7.22 (01:10) 6.39 (00:40) 0 0 0 0 0
06-12-2019 10.3 (13:20) 5.7 (00:00) 8 5 (23:59) 4.17 (23:59) 2.8 2.6 0 0 0.2
05-12-2019 6.8 (15:20) 5.3 (00:00) 6.1 8.33 (01:30) 6.39 (01:50) 9 2.8 2 2.6 1.6
04-12-2019 6.1 (21:50) 2.4 (02:10) 4.3 11.67 (18:40) 8.06 (18:30) 16.2 0.2 4 8.4 3.6
03-12-2019 4.9 (14:00) 0.8 (00:00) 2.9 7.78 (00:50) 6.11 (01:00) 0 0 0 0 0
02-12-2019 9.4 (14:20) 3.4 (00:00) 6.4 9.44 (19:30) 6.94 (19:30) 0 0 0 0 0
01-12-2019 10.6 (13:30) 4.2 (00:00) 7.4 13.89 (00:20) 11.11 (00:30) 0.8 0.8 0 0 0
30-11-2019 16.6 (13:00) 7.2 (00:00) 11.9 15.56 (23:59) 11.11 (20:20) 1 0 0 0 1
29-11-2019 14.9 (14:30) 9.5 (00:00) 12.2 14.72 (00:10) 11.39 (00:10) 0 0 0 0 0
28-11-2019 15 (12:50) 9.6 (04:10) 12.3 21.39 (08:00) 16.67 (05:10) 0 0 0 0 0
27-11-2019 14.7 (15:00) 9.2 (00:00) 11.9 20.56 (11:00) 16.39 (11:00) 0 0 0 0 0
26-11-2019 18.9 (14:40) 8.9 (00:00) 13.9 12.5 (10:20) 10 (15:20) 0 0 0 0 0
25-11-2019 16.2 (14:40) 6.9 (01:40) 11.6 17.5 (10:20) 14.17 (09:40) 1.6 1.6 0 0 0
24-11-2019 10.2 (14:20) 4.1 (00:00) 7.1 17.78 (02:00) 15.28 (02:10) 0 0 0 0 0
23-11-2019 9.4 (15:40) 4.7 (00:00) 7 23.33 (11:20) 17.22 (12:10) 2.4 0.2 2.2 0 0
22-11-2019 12 (16:50) 5.8 (00:00) 8.9 22.5 (22:50) 15 (22:50) 0.8 0 0 0 0.8
21-11-2019 10.8 (13:00) 3.7 (00:00) 7.3 11.67 (09:50) 9.44 (09:50) 0 0 0 0 0
20-11-2019 9.2 (11:50) 2.1 (07:50) 5.6 6.39 (01:00) 5.28 (00:10) 0.2 0 0 0 0.2
19-11-2019 9.6 (15:20) 0.8 (00:00) 5.2 12.22 (00:10) 9.72 (00:10) 0 0 0 0 0
18-11-2019 6 (00:00) 2.4 (00:00) 4.2 18.61 (10:00) 14.17 (09:40) 0.8 0.8 0 0 0
17-11-2019 10.9 (14:30) 2.5 (00:00) 6.7 17.22 (11:30) 12.78 (13:20) 3.8 0 0 3 0.8
16-11-2019 8.4 (14:40) 0.5 (00:00) 4.4 16.11 (18:30) 11.94 (18:30) 0 0 0 0 0

Gráficas

Temp. máximas Temp. mínimas Temp. medias Precipitaciones Rachas de viento máximas Velocidades máximas media en intervalos de 10 minutos

Datos horarios

Fecha y hora oficial Temperatura (ºC) Velocidad del viento (km/h) Dirección del viento Racha (km/h) Dirección de racha Precipitación (mm) Presión (hPa) Tendencia (hPa) Humedad (%)
2019-12-15 23:00:00 9.7 6 Sudeste 15 Este 0 -- -- 67
2019-12-15 22:00:00 10.6 12 Este 14 Este 0 -- -- 64
2019-12-15 21:00:00 10.4 9 Sudeste 12 Sudeste 0 -- -- 64
2019-12-15 20:00:00 10.5 9 Sudeste 12 Sudeste 0 -- -- 63
2019-12-15 19:00:00 10.3 6 Este 13 Este 0 -- -- 63
2019-12-15 18:00:00 10.7 11 Este 15 Este 0 -- -- 62
2019-12-15 17:00:00 11.7 6 Nordeste 9 Nordeste 0 -- -- 58
2019-12-15 16:00:00 13.2 4 Oeste 13 Oeste 0 -- -- 53
2019-12-15 15:00:00 13.3 8 Oeste 22 Oeste 0 -- -- 55
2019-12-15 14:00:00 12.7 17 Oeste 28 Oeste 0 -- -- 57
2019-12-15 13:00:00 12 18 Oeste 35 Oeste 0 -- -- 59
2019-12-15 12:00:00 10.7 25 Oeste 34 Oeste 0 -- -- 65
2019-12-15 11:00:00 9.5 26 Oeste 38 Oeste 0 -- -- 70
2019-12-15 10:00:00 8.1 26 Oeste 36 Sudoeste 0 -- -- 76
2019-12-15 09:00:00 6.8 16 Sudoeste 29 Oeste 0 -- -- 79
2019-12-15 08:00:00 6 18 Oeste 26 Sudoeste 0 -- -- 80
2019-12-15 07:00:00 6.9 14 Oeste 26 Oeste 0 -- -- 76
2019-12-15 06:00:00 7.3 14 Oeste 24 Oeste 0 -- -- 74
2019-12-15 05:00:00 7.1 15 Oeste 46 Oeste 0 -- -- 75
2019-12-15 04:00:00 7.8 39 Oeste 48 Oeste 0 -- -- 72
2019-12-15 03:00:00 7.5 32 Sudoeste 46 Sudoeste 0 -- -- 73
2019-12-15 02:00:00 7.7 39 Oeste 50 Sudoeste 0 -- -- 72
2019-12-15 01:00:00 7.8 33 Sudoeste 46 Sudoeste 0 -- -- 71
2019-12-15 00:00:00 8.4 35 Sudoeste 60 Sudoeste 0 -- -- 68
2019-12-14 23:00:00 8.6 32 Sudoeste 56 Oeste 0 -- -- 68
2019-12-14 22:00:00 8.2 39 Sudoeste 48 Sudoeste 0 -- -- 70
2019-12-14 21:00:00 8.2 24 Oeste 40 Oeste 0 -- -- 70
2019-12-14 20:00:00 8.3 10 Oeste 16 Oeste 0 -- -- 71
2019-12-14 19:00:00 8.6 10 Oeste 18 Oeste 0 -- -- 70
2019-12-14 18:00:00 9.2 10 Oeste 22 Oeste 0 -- -- 67
2019-12-14 17:00:00 9.8 17 Oeste 34 Oeste 0 -- -- 65
2019-12-14 16:00:00 10.8 22 Oeste 37 Sudoeste 0 -- -- 62
2019-12-14 15:00:00 11.3 31 Sudoeste 50 Sudoeste 0 -- -- 60
2019-12-14 14:00:00 11.6 32 Sudoeste 50 Oeste 0 -- -- 59
2019-12-14 13:00:00 11 41 Oeste 66 Oeste 0 -- -- 61
2019-12-14 12:00:00 10.5 53 Oeste 73 Oeste 0 -- -- 63
2019-12-14 11:00:00 10.2 55 Oeste 71 Oeste 0 -- -- 66
2019-12-14 10:00:00 9.3 50 Oeste 67 Oeste 0 -- -- 70
2019-12-14 09:00:00 8.8 53 Oeste 66 Oeste 0 -- -- 70
2019-12-14 08:00:00 8.5 51 Oeste 63 Oeste 0 -- -- 72
2019-12-14 07:00:00 8.7 47 Oeste 65 Oeste 0 -- -- 72
2019-12-14 06:00:00 9.4 38 Oeste 59 Oeste 0 -- -- 68
2019-12-14 05:00:00 9.4 50 Oeste 67 Oeste 0 -- -- 70
2019-12-14 04:00:00 9.9 43 Oeste 68 Oeste 0 -- -- 69
2019-12-14 03:00:00 10.2 34 Sudoeste 61 Oeste 0 -- -- 68
2019-12-14 02:00:00 11.2 49 Oeste 81 Oeste 0 -- -- 62
2019-12-14 01:00:00 11.5 63 Oeste 90 Oeste 0 -- -- 62
2019-12-14 00:00:00 11.7 58 Oeste 91 Oeste 0 -- -- 64
2019-12-13 23:00:00 11.9 73 Oeste 110 Oeste 0 -- -- 66
2019-12-13 22:00:00 12.6 86 Oeste 107 Oeste 0 -- -- 64
2019-12-13 21:00:00 12.7 75 Oeste 95 Oeste 0 -- -- 67
2019-12-13 20:00:00 13.2 73 Oeste 96 Oeste 0 -- -- 66
2019-12-13 19:00:00 13.4 62 Oeste 88 Oeste 0 -- -- 66
2019-12-13 18:00:00 13.7 66 Oeste 86 Oeste 0 -- -- 66
2019-12-13 17:00:00 14.2 64 Oeste 82 Oeste 0 -- -- 64
2019-12-13 16:00:00 14.3 57 Oeste 84 Oeste 0 -- -- 64
2019-12-13 15:00:00 14.8 64 Oeste 100 Oeste 0 -- -- 61
2019-12-13 14:00:00 14.6 68 Oeste 89 Oeste 0 -- -- 61
2019-12-13 13:00:00 15.1 74 Oeste 109 Oeste 0 -- -- 59
2019-12-13 12:00:00 14.8 75 Oeste 103 Oeste 0 -- -- 59
2019-12-13 11:00:00 14 72 Oeste 99 Oeste 0 -- -- 62
2019-12-13 10:00:00 13.5 69 Oeste 87 Oeste 0 -- -- 63
2019-12-13 09:00:00 12.8 65 Oeste 91 Oeste 0 -- -- 68
2019-12-13 08:00:00 12.8 72 Oeste 97 Oeste 0 -- -- 69
2019-12-13 07:00:00 12.6 67 Oeste 93 Sudoeste 0 -- -- 71
2019-12-13 06:00:00 12.5 67 Oeste 91 Oeste 0 -- -- 71
2019-12-13 05:00:00 12.7 69 Oeste 89 Oeste 0 -- -- 70
2019-12-13 04:00:00 12.2 65 Oeste 82 Oeste 0 -- -- 72
2019-12-13 03:00:00 12 64 Oeste 84 Sudoeste 0 -- -- 72
2019-12-13 02:00:00 11 59 Oeste 77 Oeste 0 -- -- 75
2019-12-13 01:00:00 10.5 55 Oeste 81 Oeste 0 -- -- 77
2019-12-13 00:00:00 10.3 58 Oeste 86 Oeste 0 -- -- 77
2019-12-12 23:00:00 9.7 64 Oeste 85 Oeste 0 -- -- 74
2019-12-12 22:00:00 9.1 61 Oeste 88 Oeste 0 -- -- 74
2019-12-12 21:00:00 8.4 69 Oeste 87 Oeste 0 -- -- 74
2019-12-12 20:00:00 8 66 Oeste 91 Oeste 0 -- -- 73
2019-12-12 19:00:00 7.8 71 Oeste 91 Sudoeste 0 -- -- 71
2019-12-12 18:00:00 7.1 64 Oeste 84 Oeste 0 -- -- 73
2019-12-12 17:00:00 6.4 58 Oeste 85 Sudoeste 0 -- -- 78
2019-12-12 16:00:00 7.2 68 Oeste 85 Oeste 0 -- -- 72
2019-12-12 15:00:00 8.6 53 Oeste 74 Oeste 0 -- -- 64
2019-12-12 14:00:00 8.6 47 Oeste 70 Oeste 0 -- -- 62
2019-12-12 13:00:00 8.3 52 Oeste 71 Oeste 0 -- -- 62
2019-12-12 12:00:00 8.8 50 Oeste 75 Oeste 0 -- -- 60
2019-12-12 11:00:00 8 44 Oeste 65 Oeste 0 -- -- 63
2019-12-12 10:00:00 6.2 41 Oeste 57 Oeste 0 -- -- 67
2019-12-12 09:00:00 5.1 44 Oeste 62 Oeste 0 -- -- 71
2019-12-12 08:00:00 4.5 40 Oeste 55 Oeste 0 -- -- 72
2019-12-12 07:00:00 4.7 39 Oeste 57 Oeste 0 -- -- 73
2019-12-12 06:00:00 4.7 43 Oeste 62 Oeste 0 -- -- 75
2019-12-12 05:00:00 4.8 51 Oeste 61 Oeste 0 -- -- 74
2019-12-12 04:00:00 4.5 44 Oeste 67 Oeste 0 -- -- 75
2019-12-12 03:00:00 4.9 56 Oeste 80 Oeste 0 -- -- 73
2019-12-12 02:00:00 4.8 36 Oeste 62 Oeste 0 -- -- 72
2019-12-12 01:00:00 5 46 Oeste 65 Oeste 0 -- -- 70
2019-12-12 00:00:00 5.1 53 Oeste 73 Oeste 0 -- -- 70
2019-12-11 23:00:00 4.9 55 Oeste 76 Oeste 0 -- -- 71
2019-12-11 22:00:00 4.8 58 Oeste 72 Oeste 0 -- -- 75
2019-12-11 21:00:00 4.3 43 Oeste 55 Oeste 0 -- -- 81
2019-12-11 20:00:00 4.9 37 Oeste 46 Oeste 0 -- -- 84
2019-12-11 19:00:00 5.1 24 Oeste 50 Oeste 0 -- -- 88
2019-12-11 18:00:00 5.7 37 Oeste 64 Noroeste 0 -- -- 83
2019-12-11 17:00:00 6.2 44 Noroeste 72 Noroeste 0 -- -- 78
2019-12-11 16:00:00 7 51 Noroeste 69 Noroeste 0.2 -- -- 75
2019-12-11 15:00:00 7 37 Oeste 59 Oeste 0 -- -- 80
2019-12-11 14:00:00 6.3 33 Oeste 41 Oeste 0.2 -- -- 77
2019-12-11 13:00:00 7.7 22 Noroeste 39 Noroeste 0 -- -- 68
2019-12-11 12:00:00 10 32 Oeste 44 Oeste 0 -- -- 46
2019-12-11 11:00:00 11.1 15 Oeste 33 Sudoeste 0 -- -- 44
2019-12-11 10:00:00 8.9 27 Oeste 33 Oeste 0 -- -- 48
2019-12-11 09:00:00 7.8 19 Oeste 26 Oeste 0 -- -- 50
2019-12-11 08:00:00 8.5 11 Noroeste 32 Oeste 0 -- -- 44
2019-12-11 07:00:00 8.8 28 Oeste 35 Oeste 0 -- -- 46
2019-12-11 06:00:00 7.9 26 Oeste 40 Oeste 0 -- -- 50
2019-12-11 05:00:00 8.9 32 Oeste 44 Oeste 0 -- -- 47
2019-12-11 04:00:00 9 32 Oeste 43 Sudoeste 0 -- -- 49
2019-12-11 03:00:00 8.7 35 Sudoeste 46 Sudoeste 0 -- -- 50
2019-12-11 02:00:00 8.7 36 Sudoeste 46 Oeste 0 -- -- 51
2019-12-11 01:00:00 9 31 Sudoeste 37 Oeste 0 -- -- 46
2019-12-11 00:00:00 8.5 21 Sudoeste 33 Sudoeste 0 -- -- 47
2019-12-10 23:00:00 8.9 26 Oeste 35 Sudoeste 0 -- -- 46
2019-12-10 22:00:00 8.5 16 Sudoeste 21 Oeste 0 -- -- 50
2019-12-10 21:00:00 8.9 19 Sudoeste 24 Sudoeste 0 -- -- 51
2019-12-10 20:00:00 9 18 Sudoeste 24 Sudoeste 0 -- -- 53
2019-12-10 19:00:00 8.9 24 Oeste 28 Oeste 0 -- -- 56
2019-12-10 18:00:00 10.1 20 Oeste 30 Oeste 0 -- -- 50
2019-12-10 17:00:00 12 22 Oeste 30 Oeste 0 -- -- 41
2019-12-10 16:00:00 13.5 29 Oeste 42 Oeste 0 -- -- 36
2019-12-10 15:00:00 14.2 28 Oeste 36 Oeste 0 -- -- 39
2019-12-10 14:00:00 13.4 27 Oeste 40 Oeste 0 -- -- 37
2019-12-10 13:00:00 10.9 3 Este 12 Este 0 -- -- 54
2019-12-10 12:00:00 9.8 9 Noroeste 26 Oeste 0 -- -- 54
2019-12-10 11:00:00 8.6 22 Oeste 42 Oeste 0 -- -- 52
2019-12-10 10:00:00 6.4 36 Oeste 53 Oeste 0 -- -- 59
2019-12-10 09:00:00 5.3 44 Oeste 63 Oeste 0 -- -- 68
2019-12-10 08:00:00 4.7 51 Oeste 70 Oeste 0 -- -- 76
2019-12-10 07:00:00 4.9 53 Oeste 63 Oeste 0 -- -- 75
2019-12-10 06:00:00 4.5 50 Oeste 63 Oeste 0 -- -- 77
2019-12-10 05:00:00 5.1 40 Oeste 60 Noroeste 0 -- -- 75
2019-12-10 04:00:00 5.4 42 Oeste 54 Oeste 0 -- -- 73
2019-12-10 03:00:00 5.6 45 Oeste 62 Oeste 0 -- -- 72
2019-12-10 02:00:00 5.5 45 Oeste 57 Oeste 0 -- -- 74
2019-12-10 01:00:00 5.9 43 Oeste 55 Oeste 0 -- -- 71
2019-12-10 00:00:00 5.9 33 Oeste 60 Oeste 0 -- -- 73
2019-12-09 23:00:00 6 39 Oeste 68 Oeste 0 -- -- 76
2019-12-09 22:00:00 7 47 Noroeste 74 Oeste 0 -- -- 70
2019-12-09 21:00:00 7.1 44 Noroeste 69 Oeste 0 -- -- 72
2019-12-09 20:00:00 7.5 54 Noroeste 71 Noroeste 0 -- -- 73
2019-12-09 19:00:00 7.4 46 Noroeste 65 Oeste 0 -- -- 75
2019-12-09 18:00:00 7.6 42 Noroeste 75 Noroeste 0 -- -- 75
2019-12-09 17:00:00 8.5 53 Noroeste 70 Noroeste 0 -- -- 71
2019-12-09 16:00:00 9.2 40 Noroeste 63 Noroeste 0 -- -- 66
2019-12-09 15:00:00 10.5 46 Noroeste 66 Noroeste 0 -- -- 61
2019-12-09 14:00:00 10.3 50 Noroeste 81 Oeste 0 -- -- 58
2019-12-09 13:00:00 10.4 55 Noroeste 76 Noroeste 0 -- -- 57
2019-12-09 12:00:00 8.9 47 Oeste 63 Oeste 0 -- -- 66
2019-12-09 11:00:00 7.5 48 Oeste 62 Oeste 0 -- -- 72
2019-12-09 10:00:00 6.3 45 Oeste 65 Noroeste 0 -- -- 77
2019-12-09 09:00:00 6.3 49 Noroeste 67 Noroeste 0 -- -- 78
2019-12-09 08:00:00 5.2 33 Oeste 47 Oeste 0 -- -- 82
2019-12-09 07:00:00 5.5 37 Oeste 44 Oeste 0 -- -- 81
2019-12-09 06:00:00 5.7 35 Oeste 41 Oeste 0 -- -- 83
2019-12-09 05:00:00 6.2 32 Oeste 39 Oeste 0 -- -- 85
2019-12-09 04:00:00 6.1 26 Oeste 49 Oeste 0 -- -- 88
2019-12-09 03:00:00 7.2 41 Oeste 58 Oeste 0 -- -- 87
2019-12-09 02:00:00 7.6 39 Oeste 59 Oeste 0 -- -- 92
2019-12-09 01:00:00 8.6 51 Oeste 58 Oeste 0 -- -- 88
2019-12-09 00:00:00 8.7 49 Oeste 59 Oeste 0 -- -- 90
2019-12-08 23:00:00 9.2 43 Oeste 69 Noroeste 0 -- -- 92
2019-12-08 22:00:00 9.1 41 Oeste 53 Noroeste 0.2 -- -- 96
2019-12-08 21:00:00 8.9 34 Oeste 47 Oeste 0 -- -- 95
2019-12-08 20:00:00 9 37 Oeste 48 Oeste 0.4 -- -- 94
2019-12-08 19:00:00 9.8 32 Oeste 45 Oeste 0 -- -- 85
2019-12-08 18:00:00 11.1 40 Oeste 49 Oeste 0 -- -- 77
2019-12-08 17:00:00 12 25 Oeste 39 Oeste 0 -- -- 71
2019-12-08 16:00:00 13.1 31 Oeste 40 Oeste 0 -- -- 63
2019-12-08 15:00:00 13.2 35 Oeste 47 Oeste 0 -- -- 61
2019-12-08 14:00:00 12.9 31 Oeste 43 Oeste 0 -- -- 63
2019-12-08 13:00:00 12 30 Oeste 46 Oeste 0 -- -- 65
2019-12-08 12:00:00 10.8 36 Oeste 49 Oeste 0 -- -- 71
2019-12-08 11:00:00 9.5 25 Oeste 35 Oeste 0 -- -- 73
2019-12-08 10:00:00 8.1 28 Oeste 37 Oeste 0 -- -- 76
2019-12-08 09:00:00 6.2 20 Oeste 30 Oeste 0 -- -- 84
2019-12-08 08:00:00 5.1 22 Oeste 29 Oeste 0 -- -- 88
2019-12-08 07:00:00 4.8 25 Oeste 29 Oeste 0 -- -- 89
2019-12-08 06:00:00 4.9 23 Oeste 27 Oeste 0 -- -- 90
2019-12-08 05:00:00 6.1 15 Oeste 22 Oeste 0 -- -- 85
2019-12-08 04:00:00 5.6 15 Oeste 20 Oeste 0 -- -- 88
2019-12-08 03:00:00 5.7 20 Oeste 22 Oeste 0 -- -- 90
2019-12-08 02:00:00 6.1 17 Oeste 21 Oeste 0 -- -- 88
2019-12-08 01:00:00 5.8 19 Oeste 22 Oeste 0 -- -- 92
2019-12-08 00:00:00 6.3 19 Oeste 21 Oeste 0 -- -- 91
2019-12-07 23:00:00 7 17 Oeste 19 Oeste 0 -- -- 91
2019-12-07 22:00:00 7 17 Oeste 19 Oeste 0 -- -- 93
2019-12-07 21:00:00 7.6 16 Oeste 18 Oeste 0 -- -- 92
2019-12-07 20:00:00 8.3 15 Oeste 18 Oeste 0 -- -- 91
2019-12-07 19:00:00 7.8 18 Sudoeste 20 Sudoeste 0 -- -- 93
2019-12-07 18:00:00 8.7 8 Sudoeste 10 Sudoeste 0 -- -- 90
2019-12-07 17:00:00 9.3 8 Nordeste 12 Nordeste 0 -- -- 87
2019-12-07 16:00:00 10.2 8 Nordeste 12 Este 0 -- -- 83
2019-12-07 15:00:00 10.7 9 Nordeste 17 Este 0 -- -- 81
2019-12-07 14:00:00 11.5 9 Este 15 Oeste 0 -- -- 76
2019-12-07 13:00:00 10.9 8 Noroeste 17 Oeste 0 -- -- 75
2019-12-07 12:00:00 9.8 10 Oeste 16 Oeste 0 -- -- 80
2019-12-07 11:00:00 8 13 Oeste 16 Oeste 0 -- -- 87
2019-12-07 10:00:00 6.3 14 Oeste 18 Oeste 0 -- -- 90
2019-12-07 09:00:00 5.1 18 Oeste 22 Oeste 0 -- -- 92
2019-12-07 08:00:00 5.2 18 Oeste 22 Oeste 0 -- -- 90
2019-12-07 07:00:00 5.7 18 Oeste 21 Oeste 0 -- -- 89
2019-12-07 06:00:00 5.5 16 Oeste 19 Oeste 0 -- -- 90
2019-12-07 05:00:00 5.7 16 Oeste 18 Oeste 0 -- -- 89
2019-12-07 04:00:00 5.5 17 Oeste 21 Oeste 0 -- -- 92
2019-12-07 03:00:00 5.6 18 Oeste 22 Oeste 0 -- -- 92
2019-12-07 02:00:00 5.7 20 Oeste 26 Oeste 0 -- -- 96
2019-12-07 01:00:00 5.7 22 Oeste 26 Oeste 0 -- -- 99
2019-12-07 00:00:00 6.2 15 Oeste 18 Oeste 0.2 -- -- 99
2019-12-06 23:00:00 6.3 14 Oeste 16 Oeste 0 -- -- 99
2019-12-06 22:00:00 6.5 14 Oeste 16 Oeste 0 -- -- 98
2019-12-06 21:00:00 6.2 12 Sudoeste 14 Sudoeste 0 -- -- 98
2019-12-06 20:00:00 6.8 6 Sudoeste 8 Sudoeste 0 -- -- 97
2019-12-06 19:00:00 7.7 4 Sur 8 Este 0 -- -- 96
2019-12-06 18:00:00 8 8 Nordeste 11 Nordeste 0 -- -- 96
2019-12-06 17:00:00 8.8 7 Nordeste 12 Este 0 -- -- 93
2019-12-06 16:00:00 9.2 12 Nordeste 15 Este 0 -- -- 92
2019-12-06 15:00:00 9.7 9 Nordeste 15 Nordeste 0 -- -- 88
2019-12-06 14:00:00 9.5 10 Nordeste 14 Nordeste 0 -- -- 90
2019-12-06 13:00:00 9.8 3 Sur 14 Sur 0 -- -- 98
2019-12-06 12:00:00 8.3 11 Sur 16 Sur 0 -- -- 100
2019-12-06 11:00:00 7.3 3 Sudoeste 8 Sudoeste 0 -- -- 100
2019-12-06 10:00:00 6.1 5 Oeste 15 Oeste 0 -- -- 100
2019-12-06 09:00:00 5.8 9 Oeste 14 Oeste 0 -- -- 100
2019-12-06 08:00:00 5.7 10 Oeste 14 Oeste 0 -- -- 100
2019-12-06 07:00:00 5.7 9 Oeste 11 Oeste 0 -- -- 99
2019-12-06 06:00:00 5.7 8 Oeste 16 Oeste 0 -- -- 99
2019-12-06 05:00:00 5.7 11 Oeste 14 Oeste 0.2 -- -- 99
2019-12-06 04:00:00 5.9 8 Oeste 14 Oeste 0.4 -- -- 99
2019-12-06 03:00:00 6.1 12 Oeste 15 Oeste 0.4 -- -- 99
2019-12-06 02:00:00 6.2 10 Oeste 17 Noroeste 0.2 -- -- 99
2019-12-06 01:00:00 6.1 11 Noroeste 16 Noroeste 1.4 -- -- 99
2019-12-06 00:00:00 6.2 11 Noroeste 16 Noroeste 0.8 -- -- 99
2019-12-05 23:00:00 6.3 14 Noroeste 17 Noroeste 0 -- -- 99
2019-12-05 22:00:00 6.3 11 Noroeste 15 Noroeste 0.2 -- -- 99
2019-12-05 21:00:00 6.4 12 Noroeste 20 Noroeste 0.6 -- -- 99
2019-12-05 20:00:00 6.4 16 Noroeste 28 Noroeste 0 -- -- 99
2019-12-05 19:00:00 6.4 13 Noroeste 22 Noroeste 0 -- -- 100
2019-12-05 18:00:00 6.3 17 Noroeste 23 Noroeste 0.6 -- -- 100
2019-12-05 17:00:00 6.3 15 Noroeste 22 Noroeste 0.4 -- -- 100
2019-12-05 16:00:00 6.5 17 Noroeste 22 Noroeste 0.6 -- -- 100
2019-12-05 15:00:00 6.7 12 Noroeste 17 Noroeste 0.8 -- -- 100
2019-12-05 14:00:00 6.5 12 Noroeste 19 Noroeste 0 -- -- 100
2019-12-05 13:00:00 6.4 10 Noroeste 16 Noroeste 0.2 -- -- 100
2019-12-05 12:00:00 6.1 11 Noroeste 20 Noroeste 0.6 -- -- 99
2019-12-05 11:00:00 5.9 15 Noroeste 23 Noroeste 0.8 -- -- 99
2019-12-05 10:00:00 5.8 13 Noroeste 23 Noroeste 0.4 -- -- 99
2019-12-05 09:00:00 5.6 17 Noroeste 22 Noroeste 0 -- -- 99
2019-12-05 08:00:00 5.6 15 Noroeste 25 Noroeste 0.2 -- -- 99
2019-12-05 07:00:00 5.5 18 Noroeste 24 Norte 0 -- -- 99
2019-12-05 06:00:00 5.5 14 Noroeste 22 Noroeste 0 -- -- 99
2019-12-05 05:00:00 5.3 15 Noroeste 30 Norte 0 -- -- 99
2019-12-05 04:00:00 5.4 20 Norte 30 Norte 0.6 -- -- 99
2019-12-05 03:00:00 5.5 18 Noroeste 27 Norte 1 -- -- 99
2019-12-05 02:00:00 5.5 19 Noroeste 30 Noroeste 0.8 -- -- 99
2019-12-05 01:00:00 5.6 17 Noroeste 27 Noroeste 0.4 -- -- 98
2019-12-05 00:00:00 5.8 15 Norte 27 Noroeste 0 -- -- 99
2019-12-04 23:00:00 5.8 19 Noroeste 27 Noroeste 0.6 -- -- 98
2019-12-04 22:00:00 6 17 Norte 32 Norte 0.4 -- -- 98
2019-12-04 21:00:00 6 16 Norte 33 Norte 0.8 -- -- 99
2019-12-04 20:00:00 5.9 23 Nordeste 42 Norte 1.2 -- -- 98
2019-12-04 19:00:00 5.8 25 Norte 42 Norte 0.6 -- -- 98
2019-12-04 18:00:00 5.8 23 Norte 37 Norte 1.6 -- -- 98
2019-12-04 17:00:00 5.7 23 Norte 33 Norte 2.2 -- -- 98
2019-12-04 16:00:00 5.1 16 Norte 24 Norte 1.2 -- -- 98
2019-12-04 15:00:00 5.1 17 Norte 28 Norte 1 -- -- 98
2019-12-04 14:00:00 4.9 19 Norte 30 Norte 1 -- -- 97
2019-12-04 13:00:00 4.2 21 Norte 33 Norte 1.4 -- -- 96
2019-12-04 12:00:00 4.2 23 Noroeste 30 Noroeste 1.2 -- -- 94
2019-12-04 11:00:00 4.3 13 Norte 27 Noroeste 1.6 -- -- 93
2019-12-04 10:00:00 4.3 17 Noroeste 23 Noroeste 0.6 -- -- 94
2019-12-04 09:00:00 3.7 16 Noroeste 26 Noroeste 0.2 -- -- 96
2019-12-04 08:00:00 3 15 Oeste 20 Oeste 0.4 -- -- 96
2019-12-04 07:00:00 2.9 15 Oeste 20 Oeste 0 -- -- 95
2019-12-04 06:00:00 2.8 13 Oeste 22 Oeste 0 -- -- 96
2019-12-04 05:00:00 2.6 18 Oeste 27 Oeste 0 -- -- 97
2019-12-04 04:00:00 2.5 16 Oeste 21 Oeste 0 -- -- 97
2019-12-04 03:00:00 2.4 15 Oeste 21 Oeste 0 -- -- 96
2019-12-04 02:00:00 2.5 14 Oeste 18 Oeste 0 -- -- 95
2019-12-04 01:00:00 2.6 9 Oeste 15 Oeste 0.2 -- -- 94
2019-12-04 00:00:00 2.8 7 Oeste 9 Noroeste 0 -- -- 92
2019-12-03 23:00:00 2.9 10 Noroeste 16 Oeste 0 -- -- 91
2019-12-03 22:00:00 3 6 Oeste 10 Oeste 0 -- -- 90
2019-12-03 21:00:00 3 5 Oeste 9 Oeste 0 -- -- 89
2019-12-03 20:00:00 2.9 4 Oeste 10 Noroeste 0 -- -- 90
2019-12-03 19:00:00 2.8 7 Noroeste 11 Noroeste 0 -- -- 89
2019-12-03 18:00:00 2.8 4 Noroeste 11 Oeste 0 -- -- 88
2019-12-03 17:00:00 3.3 6 Norte 15 Norte 0 -- -- 85
2019-12-03 16:00:00 4.3 9 Nordeste 13 Nordeste 0 -- -- 79
2019-12-03 15:00:00 4.5 3 Oeste 14 Noroeste 0 -- -- 78
2019-12-03 14:00:00 4.9 5 Norte 15 Oeste 0 -- -- 77
2019-12-03 13:00:00 3.7 8 Noroeste 15 Oeste 0 -- -- 79
2019-12-03 12:00:00 3.3 10 Oeste 17 Oeste 0 -- -- 80
2019-12-03 11:00:00 2.7 9 Oeste 15 Oeste 0 -- -- 84
2019-12-03 10:00:00 2.1 13 Oeste 18 Oeste 0 -- -- 86
2019-12-03 09:00:00 1.5 11 Oeste 18 Oeste 0 -- -- 90
2019-12-03 08:00:00 1.3 14 Oeste 23 Oeste 0 -- -- 91
2019-12-03 07:00:00 1.2 18 Oeste 22 Oeste 0 -- -- 91
2019-12-03 06:00:00 1.2 18 Oeste 25 Oeste 0 -- -- 91
2019-12-03 05:00:00 0.9 11 Oeste 18 Oeste 0 -- -- 90
2019-12-03 04:00:00 1.1 13 Oeste 21 Oeste 0 -- -- 89
2019-12-03 03:00:00 1.3 14 Sudoeste 19 Sudoeste 0 -- -- 87
2019-12-03 02:00:00 1.4 15 Oeste 26 Oeste 0 -- -- 87
2019-12-03 01:00:00 2.2 22 Oeste 28 Oeste 0 -- -- 86
2019-12-03 00:00:00 3.4 14 Oeste 19 Oeste 0 -- -- 86
2019-12-02 23:00:00 3.7 15 Oeste 27 Oeste 0 -- -- 87
2019-12-02 22:00:00 4.1 18 Oeste 26 Oeste 0 -- -- 87
2019-12-02 21:00:00 5.3 17 Oeste 27 Oeste 0 -- -- 86
2019-12-02 20:00:00 6.1 22 Oeste 34 Noroeste 0 -- -- 81
2019-12-02 19:00:00 6.2 18 Noroeste 26 Noroeste 0 -- -- 82
2019-12-02 18:00:00 6.8 15 Noroeste 21 Noroeste 0 -- -- 80
2019-12-02 17:00:00 7.7 16 Noroeste 21 Noroeste 0 -- -- 77
2019-12-02 16:00:00 8.2 12 Noroeste 19 Norte 0 -- -- 78
2019-12-02 15:00:00 8.4 9 Norte 21 Noroeste 0 -- -- 81
2019-12-02 14:00:00 8.8 10 Noroeste 15 Noroeste 0 -- -- 75
2019-12-02 13:00:00 8.4 6 Noroeste 15 Oeste 0 -- -- 80
2019-12-02 12:00:00 7.1 11 Oeste 26 Oeste 0 -- -- 84
2019-12-02 11:00:00 5.5 22 Oeste 27 Oeste 0 -- -- 92
2019-12-02 10:00:00 4.5 18 Oeste 28 Oeste 0 -- -- 95
2019-12-02 09:00:00 4 12 Oeste 19 Oeste 0 -- -- 96
2019-12-02 08:00:00 3.8 13 Oeste 16 Oeste 0 -- -- 94
2019-12-02 07:00:00 4.2 8 Oeste 14 Oeste 0 -- -- 95
2019-12-02 06:00:00 4 10 Sudoeste 12 Oeste 0 -- -- 94
2019-12-02 05:00:00 3.9 8 Oeste 19 Oeste 0 -- -- 93
2019-12-02 04:00:00 4.2 15 Oeste 20 Oeste 0 -- -- 92
2019-12-02 03:00:00 4.5 12 Oeste 15 Oeste 0 -- -- 90
2019-12-02 02:00:00 4.5 12 Oeste 15 Oeste 0 -- -- 89
2019-12-02 01:00:00 4.6 12 Oeste 14 Oeste 0 -- -- 90
2019-12-02 00:00:00 4.7 12 Oeste 16 Oeste 0 -- -- 90
2019-12-01 23:00:00 5.4 7 Oeste 9 Oeste 0 -- -- 88
2019-12-01 22:00:00 6.5 8 Norte 9 Norte 0 -- -- 85
2019-12-01 21:00:00 6.6 2 Oeste 7 Noroeste 0 -- -- 83
2019-12-01 20:00:00 6.9 3 Norte 5 Nordeste 0 -- -- 80
2019-12-01 19:00:00 7.3 2 Nordeste 11 Nordeste 0 -- -- 78
2019-12-01 18:00:00 7.5 5 Nordeste 13 Nordeste 0 -- -- 78
2019-12-01 17:00:00 8.6 9 Nordeste 12 Nordeste 0 -- -- 74
2019-12-01 16:00:00 9.2 4 Norte 16 Nordeste 0 -- -- 70
2019-12-01 15:00:00 9.4 7 Nordeste 20 Nordeste 0 -- -- 69
2019-12-01 14:00:00 10.2 9 Este 17 Nordeste 0 -- -- 66
2019-12-01 13:00:00 9.7 4 Norte 17 Oeste 0 -- -- 70
2019-12-01 12:00:00 9 16 Oeste 23 Oeste 0 -- -- 67
2019-12-01 11:00:00 7.8 13 Oeste 21 Oeste 0 -- -- 76
2019-12-01 10:00:00 5.7 19 Oeste 25 Oeste 0 -- -- 85
2019-12-01 09:00:00 4.6 10 Oeste 24 Oeste 0 -- -- 88
2019-12-01 08:00:00 4.6 23 Oeste 33 Oeste 0 -- -- 88
2019-12-01 07:00:00 4.6 22 Oeste 31 Oeste 0 -- -- 91
2019-12-01 06:00:00 5.7 26 Oeste 37 Oeste 0 -- -- 87
2019-12-01 05:00:00 5 18 Sudoeste 23 Sudoeste 0.2 -- -- 91
2019-12-01 04:00:00 5.4 16 Sudoeste 19 Sudoeste 0 -- -- 93
2019-12-01 03:00:00 5.8 10 Sudoeste 21 Sudoeste 0 -- -- 92
2019-12-01 02:00:00 6 18 Oeste 31 Oeste 0.6 -- -- 92
2019-12-01 01:00:00 6.4 26 Oeste 50 Oeste 0 -- -- 93
2019-12-01 00:00:00 7.2 40 Oeste 56 Oeste 1 -- -- 94
2019-11-30 23:00:00 8.1 37 Noroeste 45 Noroeste 0 -- -- 91
2019-11-30 22:00:00 11.1 35 Noroeste 53 Noroeste 0 -- -- 80
2019-11-30 21:00:00 12.8 36 Sudoeste 50 Sudoeste 0 -- -- 65
2019-11-30 20:00:00 12.9 33 Sudoeste 41 Sudoeste 0 -- -- 64
2019-11-30 19:00:00 12.9 32 Sudoeste 37 Sudoeste 0 -- -- 65
2019-11-30 18:00:00 14.1 7 Sudoeste 14 Este 0 -- -- 68
2019-11-30 17:00:00 14.5 12 Este 17 Este 0 -- -- 69
2019-11-30 16:00:00 14.7 14 Este 22 Nordeste 0 -- -- 67
2019-11-30 15:00:00 15.6 13 Este 22 Este 0 -- -- 62
2019-11-30 14:00:00 16.5 8 Nordeste 21 Oeste 0 -- -- 61
2019-11-30 13:00:00 16.6 17 Oeste 31 Oeste 0 -- -- 60
2019-11-30 12:00:00 15.8 8 Sudoeste 13 Sudoeste 0 -- -- 63
2019-11-30 11:00:00 14 5 Oeste 11 Oeste 0 -- -- 70
2019-11-30 10:00:00 12 8 Oeste 14 Oeste 0 -- -- 75
2019-11-30 09:00:00 10.7 10 Sudoeste 19 Sur 0 -- -- 80
2019-11-30 08:00:00 10.3 14 Sudoeste 19 Sudoeste 0 -- -- 81
2019-11-30 07:00:00 10.2 14 Sudoeste 20 Sudoeste 0 -- -- 81
2019-11-30 06:00:00 10 12 Sudoeste 18 Sudoeste 0 -- -- 84
2019-11-30 05:00:00 10.1 8 Sudoeste 14 Sur 0 -- -- 85
2019-11-30 04:00:00 10.5 8 Sudoeste 18 Sudoeste 0 -- -- 85
2019-11-30 03:00:00 10.2 16 Oeste 22 Oeste 0 -- -- 86
2019-11-30 02:00:00 10.6 14 Oeste 21 Oeste 0 -- -- 84
2019-11-30 01:00:00 9.6 18 Oeste 19 Oeste 0 -- -- 87
2019-11-30 00:00:00 9.5 17 Oeste 23 Oeste 0 -- -- 87
2019-11-29 23:00:00 10 16 Oeste 19 Oeste 0 -- -- 86
2019-11-29 22:00:00 10.7 9 Oeste 13 Sudoeste 0 -- -- 84
2019-11-29 21:00:00 9.9 10 Sudoeste 14 Sur 0 -- -- 86
2019-11-29 20:00:00 10.9 11 Sur 15 Sur 0 -- -- 80
2019-11-29 19:00:00 11 5 Sur 9 Sur 0 -- -- 80
2019-11-29 18:00:00 11.3 5 Sudoeste 10 Norte 0 -- -- 79
2019-11-29 17:00:00 11.9 8 Norte 23 Norte 0 -- -- 77
2019-11-29 16:00:00 13.3 14 Norte 24 Norte 0 -- -- 74
2019-11-29 15:00:00 14.1 14 Norte 21 Norte 0 -- -- 71
2019-11-29 14:00:00 13.5 11 Noroeste 23 Noroeste 0 -- -- 75
2019-11-29 13:00:00 13.3 15 Noroeste 26 Noroeste 0 -- -- 77
2019-11-29 12:00:00 13.1 15 Noroeste 26 Oeste 0 -- -- 76
2019-11-29 11:00:00 12.5 18 Oeste 24 Oeste 0 -- -- 77
2019-11-29 10:00:00 11.4 17 Oeste 32 Oeste 0 -- -- 80
2019-11-29 09:00:00 11.2 24 Oeste 40 Oeste 0 -- -- 78
2019-11-29 08:00:00 11.3 28 Oeste 40 Sudoeste 0 -- -- 77
2019-11-29 07:00:00 11.6 33 Oeste 44 Oeste 0 -- -- 76
2019-11-29 06:00:00 11.2 33 Sudoeste 41 Sudoeste 0 -- -- 77
2019-11-29 05:00:00 11.5 37 Sudoeste 46 Sudoeste 0 -- -- 75
2019-11-29 04:00:00 11.4 34 Sudoeste 44 Oeste 0 -- -- 73
2019-11-29 03:00:00 11.7 28 Oeste 41 Oeste 0 -- -- 71
2019-11-29 02:00:00 12 23 Sudoeste 53 Sudoeste 0 -- -- 67
2019-11-29 01:00:00 11.9 16 Oeste 53 Oeste 0 -- -- 66
2019-11-29 00:00:00 11.8 45 Oeste 63 Oeste 0 -- -- 67
2019-11-28 23:00:00 11.7 44 Sudoeste 61 Oeste 0 -- -- 66
2019-11-28 22:00:00 11.8 50 Oeste 61 Oeste 0 -- -- 63
2019-11-28 21:00:00 11.7 35 Oeste 53 Oeste 0 -- -- 62
2019-11-28 20:00:00 11.6 24 Sudoeste 47 Oeste 0 -- -- 61
2019-11-28 19:00:00 11.7 22 Oeste 42 Oeste 0 -- -- 62
2019-11-28 18:00:00 12.2 33 Oeste 51 Sudoeste 0 -- -- 61
2019-11-28 17:00:00 12.7 23 Oeste 28 Oeste 0 -- -- 62
2019-11-28 16:00:00 13.4 20 Oeste 50 Oeste 0 -- -- 58
2019-11-28 15:00:00 14.7 42 Oeste 58 Oeste 0 -- -- 54
2019-11-28 14:00:00 14.3 41 Oeste 61 Sudoeste 0 -- -- 55
2019-11-28 13:00:00 14.7 41 Sudoeste 61 Oeste 0 -- -- 55
2019-11-28 12:00:00 14 41 Oeste 69 Oeste 0 -- -- 58
2019-11-28 11:00:00 13.1 52 Oeste 63 Oeste 0 -- -- 60
2019-11-28 10:00:00 11.2 39 Sudoeste 54 Oeste 0 -- -- 64
2019-11-28 09:00:00 10 51 Oeste 67 Sudoeste 0 -- -- 69
2019-11-28 08:00:00 9.8 56 Oeste 77 Oeste 0 -- -- 69
2019-11-28 07:00:00 9.7 53 Oeste 67 Sudoeste 0 -- -- 68
2019-11-28 06:00:00 10.1 55 Oeste 71 Sudoeste 0 -- -- 67
2019-11-28 05:00:00 9.8 55 Sudoeste 69 Oeste 0 -- -- 69
2019-11-28 04:00:00 9.7 41 Oeste 66 Sudoeste 0 -- -- 70
2019-11-28 03:00:00 9.9 46 Oeste 58 Oeste 0 -- -- 68
2019-11-28 02:00:00 10.1 46 Oeste 62 Sudoeste 0 -- -- 66
2019-11-28 01:00:00 10.2 42 Sudoeste 50 Sudoeste 0 -- -- 66
2019-11-28 00:00:00 10.2 33 Oeste 53 Oeste 0 -- -- 66
2019-11-27 23:00:00 10.7 44 Oeste 56 Sudoeste 0 -- -- 63
2019-11-27 22:00:00 11 42 Oeste 55 Oeste 0 -- -- 60
2019-11-27 21:00:00 10.9 24 Sudoeste 34 Sudoeste 0 -- -- 61
2019-11-27 20:00:00 10.8 21 Sudoeste 40 Oeste 0 -- -- 61
2019-11-27 19:00:00 11.1 34 Sudoeste 49 Oeste 0 -- -- 58
2019-11-27 18:00:00 11.8 35 Oeste 45 Oeste 0 -- -- 55
2019-11-27 17:00:00 13.2 24 Oeste 39 Oeste 0 -- -- 54
2019-11-27 16:00:00 14.2 28 Oeste 44 Oeste 0 -- -- 51
2019-11-27 15:00:00 14.7 23 Oeste 44 Oeste 0 -- -- 51
2019-11-27 14:00:00 14.1 35 Oeste 57 Oeste 0 -- -- 51
2019-11-27 06:00:00 -- -- -- -- -- -- -- -- --
2019-11-27 05:00:00 12.1 18 Noroeste 35 Oeste 0 -- -- 70
2019-11-27 04:00:00 12.6 24 Noroeste 56 Oeste 0 -- -- 66
2019-11-27 03:00:00 13.2 48 Oeste 63 Oeste 0 -- -- 60
2019-11-27 02:00:00 13.3 23 Oeste 39 Noroeste 0 -- -- 64
2019-11-27 01:00:00 13.7 8 Sudoeste 31 Sudoeste 0 -- -- 71
2019-11-27 00:00:00 13 20 Sudoeste 29 Sudoeste 0 -- -- 73
2019-11-26 23:00:00 13 15 Sudoeste 27 Oeste 0 -- -- 71
2019-11-26 22:00:00 14.2 24 Oeste 42 Sudoeste 0 -- -- 65
2019-11-26 21:00:00 14.6 8 Sur 41 Sudoeste 0 -- -- 64
2019-11-26 20:00:00 13.9 23 Sudoeste 32 Sudoeste 0 -- -- 66
2019-11-26 19:00:00 13.2 5 Oeste 15 Sur 0 -- -- 72
2019-11-26 18:00:00 14.3 10 Este 15 Nordeste 0 -- -- 66
2019-11-26 17:00:00 16.2 7 Este 16 Oeste 0 -- -- 62
2019-11-26 16:00:00 18.6 17 Oeste 45 Oeste 0 -- -- 52
2019-11-26 15:00:00 18.6 32 Oeste 43 Oeste 0 -- -- 50
2019-11-26 14:00:00 17.9 12 Oeste 23 Sudoeste 0 -- -- 53
2019-11-26 13:00:00 16.2 14 Oeste 31 Sudoeste 0 -- -- 58
2019-11-26 12:00:00 15.5 18 Oeste 38 Oeste 0 -- -- 59
2019-11-26 11:00:00 14 19 Sudoeste 45 Sudoeste 0 -- -- 61
2019-11-26 10:00:00 12 26 Oeste 33 Sudoeste 0 -- -- 65
2019-11-26 09:00:00 9.6 19 Sudoeste 28 Oeste 0 -- -- 77
2019-11-26 08:00:00 9.6 19 Sudoeste 38 Sudoeste 0 -- -- 77
2019-11-26 07:00:00 9.2 8 Sudoeste 20 Oeste 0 -- -- 80
2019-11-26 06:00:00 9.4 11 Oeste 32 Sudoeste 0 -- -- 81
2019-11-26 05:00:00 9.7 27 Sudoeste 33 Sudoeste 0 -- -- 81
2019-11-26 04:00:00 9.1 16 Sudoeste 28 Sudoeste 0 -- -- 83
2019-11-26 03:00:00 9.2 13 Oeste 18 Sudoeste 0 -- -- 84
2019-11-26 02:00:00 9.3 11 Oeste 23 Oeste 0 -- -- 84
2019-11-26 01:00:00 9.7 11 Oeste 17 Sudoeste 0 -- -- 81
2019-11-26 00:00:00 9.9 7 Sudoeste 13 Oeste 0 -- -- 79
2019-11-25 23:00:00 9.8 14 Oeste 18 Oeste 0 -- -- 79
2019-11-25 22:00:00 9.8 13 Oeste 30 Oeste 0 -- -- 79
2019-11-25 21:00:00 11 26 Oeste 30 Sudoeste 0 -- -- 73
2019-11-25 20:00:00 11.4 20 Oeste 27 Oeste 0 -- -- 71
2019-11-25 19:00:00 12 22 Oeste 37 Oeste 0 -- -- 69
2019-11-25 18:00:00 12.5 26 Oeste 38 Oeste 0 -- -- 67
2019-11-25 17:00:00 13.3 26 Oeste 50 Oeste 0 -- -- 66
2019-11-25 16:00:00 14.6 42 Oeste 57 Oeste 0 -- -- 63
2019-11-25 15:00:00 16.2 30 Oeste 48 Noroeste 0 -- -- 57
2019-11-25 14:00:00 15.8 34 Oeste 51 Oeste 0 -- -- 58
2019-11-25 13:00:00 14.9 38 Oeste 55 Oeste 0 -- -- 60
2019-11-25 12:00:00 13.9 41 Oeste 62 Oeste 0 -- -- 64
2019-11-25 11:00:00 12.7 46 Oeste 63 Oeste 0 -- -- 69
2019-11-25 10:00:00 10.8 48 Oeste 62 Oeste 0 -- -- 76
2019-11-25 09:00:00 9.9 39 Oeste 47 Sudoeste 0 -- -- 79
2019-11-25 08:00:00 9.1 37 Oeste 51 Sudoeste 0 -- -- 80
2019-11-25 07:00:00 9.1 39 Oeste 57 Oeste 0 -- -- 80
2019-11-25 06:00:00 8.8 37 Oeste 51 Oeste 0 -- -- 80
2019-11-25 05:00:00 8.6 43 Oeste 53 Oeste 0.4 -- -- 81
2019-11-25 04:00:00 7.5 31 Sudoeste 54 Oeste 0.4 -- -- 85
2019-11-25 03:00:00 8.3 41 Oeste 56 Oeste 0 -- -- 73
2019-11-25 02:00:00 7.2 36 Sudoeste 42 Sudoeste 0.2 -- -- 81
2019-11-25 01:00:00 7.1 27 Oeste 39 Oeste 0.6 -- -- 87
2019-11-25 00:00:00 8.1 26 Oeste 41 Oeste 0 -- -- 69
2019-11-24 23:00:00 6.8 18 Oeste 42 Oeste 0 -- -- 68
2019-11-24 22:00:00 6.5 34 Oeste 40 Oeste 0 -- -- 70
2019-11-24 21:00:00 6.7 30 Oeste 37 Oeste 0 -- -- 71
2019-11-24 20:00:00 6.3 27 Oeste 38 Oeste 0 -- -- 73
2019-11-24 19:00:00 6.6 20 Oeste 40 Oeste 0 -- -- 72
2019-11-24 18:00:00 7.3 28 Oeste 55 Oeste 0 -- -- 69
2019-11-24 17:00:00 8.8 42 Oeste 55 Oeste 0 -- -- 63
2019-11-24 16:00:00 10.1 39 Oeste 51 Oeste 0 -- -- 61
2019-11-24 15:00:00 10.1 40 Oeste 51 Oeste 0 -- -- 61
2019-11-24 14:00:00 9.8 43 Oeste 54 Oeste 0 -- -- 62
2019-11-24 13:00:00 9.6 39 Oeste 53 Oeste 0 -- -- 65
2019-11-24 12:00:00 8.3 39 Oeste 59 Oeste 0 -- -- 66
2019-11-24 11:00:00 7.6 48 Oeste 61 Oeste 0 -- -- 68
2019-11-24 10:00:00 6.2 36 Oeste 48 Oeste 0 -- -- 72
2019-11-24 09:00:00 4.5 25 Oeste 46 Oeste 0 -- -- 79
2019-11-24 08:00:00 4.4 36 Oeste 51 Oeste 0 -- -- 80
2019-11-24 07:00:00 4.4 45 Oeste 55 Oeste 0 -- -- 81
2019-11-24 06:00:00 4.7 38 Oeste 60 Oeste 0 -- -- 80
2019-11-24 05:00:00 5.5 46 Oeste 64 Oeste 0 -- -- 76
2019-11-24 04:00:00 5.8 47 Oeste 62 Oeste 0 -- -- 75
2019-11-24 03:00:00 5.6 43 Oeste 64 Oeste 0 -- -- 75
2019-11-24 02:00:00 5.9 52 Oeste 64 Oeste 0 -- -- 75
2019-11-24 01:00:00 5.8 41 Oeste 51 Oeste 0 -- -- 76
2019-11-24 00:00:00 5.7 30 Oeste 39 Oeste 0 -- -- 77
2019-11-23 23:00:00 6.1 25 Oeste 36 Oeste 0 -- -- 75
2019-11-23 22:00:00 5.9 24 Oeste 31 Oeste 0 -- -- 76
2019-11-23 21:00:00 5.7 19 Oeste 44 Noroeste 0 -- -- 73
2019-11-23 20:00:00 7.4 39 Oeste 66 Noroeste 0 -- -- 64
2019-11-23 19:00:00 7.7 43 Noroeste 60 Oeste 0 -- -- 64
2019-11-23 18:00:00 7.7 32 Noroeste 48 Noroeste 0 -- -- 64
2019-11-23 17:00:00 8.9 36 Noroeste 61 Oeste 0 -- -- 61
2019-11-23 16:00:00 9.3 44 Oeste 69 Oeste 0 -- -- 60
2019-11-23 15:00:00 8.8 57 Oeste 71 Oeste 0 -- -- 63
2019-11-23 14:00:00 7.5 51 Oeste 71 Oeste 0 -- -- 70
2019-11-23 13:00:00 6.6 57 Oeste 75 Oeste 0 -- -- 74
2019-11-23 12:00:00 6.4 60 Oeste 84 Oeste 0 -- -- 77
2019-11-23 11:00:00 6.5 58 Oeste 76 Oeste 0.2 -- -- 79
2019-11-23 10:00:00 5 45 Oeste 65 Oeste 1.8 -- -- 89
2019-11-23 09:00:00 5.3 60 Oeste 76 Oeste 0.2 -- -- 84
2019-11-23 08:00:00 6.8 53 Oeste 72 Oeste 0 -- -- 73
2019-11-23 07:00:00 7.1 49 Oeste 64 Oeste 0 -- -- 73
2019-11-23 06:00:00 7 30 Oeste 53 Oeste 0 -- -- 74
2019-11-23 05:00:00 7.2 30 Sudoeste 40 Sudoeste 0 -- -- 76
2019-11-23 04:00:00 7.6 26 Oeste 42 Sudoeste 0 -- -- 77
2019-11-23 03:00:00 8.5 36 Oeste 48 Sudoeste 0 -- -- 72
2019-11-23 02:00:00 8.7 36 Oeste 50 Sudoeste 0.2 -- -- 76
2019-11-23 01:00:00 8.4 21 Sudoeste 35 Sudoeste 0 -- -- 83
2019-11-23 00:00:00 7.7 20 Oeste 50 Oeste 0.4 -- -- 88
2019-11-22 23:00:00 8.9 54 Oeste 81 Oeste 0.4 -- -- 83
2019-11-22 22:00:00 11.2 8 Sudeste 18 Sudeste 0 -- -- 73
2019-11-22 21:00:00 10.9 13 Sudeste 46 Sur 0 -- -- 76
2019-11-22 20:00:00 10.6 27 Sur 45 Sur 0 -- -- 78
2019-11-22 19:00:00 10.7 23 Sur 42 Sur 0 -- -- 73
2019-11-22 18:00:00 10.4 15 Sudeste 37 Sudeste 0 -- -- 76
2019-11-22 17:00:00 11.4 18 Sudeste 49 Sur 0 -- -- 70
2019-11-22 16:00:00 10.9 21 Sudeste 33 Sur 0 -- -- 72
2019-11-22 15:00:00 10.9 20 Sudeste 33 Sudeste 0 -- -- 69
2019-11-22 14:00:00 10.2 19 Este 35 Este 0 -- -- 69
2019-11-22 13:00:00 10.3 15 Sudeste 32 Sudeste 0 -- -- 66
2019-11-22 12:00:00 9.8 14 Sudeste 28 Sudeste 0 -- -- 64
2019-11-22 11:00:00 9.4 9 Sur 23 Sur 0 -- -- 67
2019-11-22 10:00:00 7.9 15 Sur 20 Sur 0 -- -- 67
2019-11-22 09:00:00 7 12 Sur 15 Sur 0 -- -- 71
2019-11-22 08:00:00 6.3 14 Sur 18 Sur 0 -- -- 74
2019-11-22 07:00:00 6.4 12 Sur 15 Sur 0 -- -- 76
2019-11-22 06:00:00 6.5 10 Sur 13 Sur 0 -- -- 76
2019-11-22 05:00:00 6.9 3 Sudeste 7 Sur 0 -- -- 73
2019-11-22 04:00:00 6.9 5 Sur 10 Sur 0 -- -- 76
2019-11-22 03:00:00 6.6 10 Sur 15 Sur 0 -- -- 80
2019-11-22 02:00:00 6.5 8 Sudoeste 16 Sur 0 -- -- 81
2019-11-22 01:00:00 7.2 12 Sur 20 Oeste 0 -- -- 79
2019-11-22 00:00:00 6.9 15 Oeste 20 Oeste 0 -- -- 85
2019-11-21 23:00:00 7.9 9 Oeste 12 Oeste 0 -- -- 75
2019-11-21 22:00:00 8.5 5 Sudoeste 7 Sudoeste 0 -- -- 72
2019-11-21 21:00:00 8.4 4 Sudoeste 9 Sur 0 -- -- 73
2019-11-21 20:00:00 8.4 6 Sur 9 Este 0 -- -- 76
2019-11-21 19:00:00 8.5 9 Este 11 Este 0 -- -- 71
2019-11-21 18:00:00 8.3 9 Este 12 Este 0 -- -- 77
2019-11-21 17:00:00 9 9 Este 13 Este 0 -- -- 75
2019-11-21 16:00:00 10.3 0 Calma 7 Sudoeste 0 -- -- 60
2019-11-21 15:00:00 10.4 9 Sudoeste 20 Oeste 0 -- -- 60
2019-11-21 14:00:00 10.7 14 Oeste 27 Oeste 0 -- -- 58
2019-11-21 13:00:00 10.8 19 Oeste 32 Oeste 0 -- -- 58
2019-11-21 12:00:00 10.3 19 Oeste 25 Oeste 0 -- -- 62
2019-11-21 11:00:00 7.9 17 Sudoeste 36 Oeste 0 -- -- 71
2019-11-21 10:00:00 6.7 32 Oeste 42 Oeste 0 -- -- 73
2019-11-21 09:00:00 5.3 22 Oeste 28 Oeste 0 -- -- 76
2019-11-21 08:00:00 -- -- -- -- -- -- -- -- --
2019-11-21 07:00:00 -- -- -- -- -- -- -- -- --
2019-11-21 06:00:00 -- -- -- -- -- -- -- -- --
2019-11-21 05:00:00 -- -- -- -- -- -- -- -- --
2019-11-21 04:00:00 -- -- -- -- -- -- -- -- --
2019-11-21 03:00:00 -- -- -- -- -- -- -- -- --
2019-11-21 02:00:00 -- -- -- -- -- -- -- -- --
2019-11-21 01:00:00 -- -- -- -- -- -- -- -- --
2019-11-21 00:00:00 -- -- -- -- -- -- -- -- --
2019-11-20 23:00:00 -- -- -- -- -- -- -- -- --
2019-11-20 22:00:00 -- -- -- -- -- -- -- -- --
2019-11-20 21:00:00 -- -- -- -- -- -- -- -- --
2019-11-20 20:00:00 -- -- -- -- -- -- -- -- --
2019-11-20 19:00:00 6.1 10 Este 13 Este 0 -- -- 79
2019-11-20 18:00:00 5.8 10 Este 14 Este 0 -- -- 79
2019-11-20 17:00:00 6.7 12 Nordeste 19 Nordeste 0 -- -- 76
2019-11-20 16:00:00 7.3 16 Nordeste 22 Este 0 -- -- 74
2019-11-20 15:00:00 7.7 14 Nordeste 20 Este 0 -- -- 73
2019-11-20 14:00:00 8.7 12 Nordeste 19 Nordeste 0 -- -- 67
2019-11-20 13:00:00 8.7 13 Nordeste 19 Nordeste 0 -- -- 57
2019-11-20 12:00:00 9.1 10 Nordeste 15 Este 0 -- -- 59
2019-11-20 11:00:00 7.9 3 Nordeste 12 Sur 0 -- -- 58
2019-11-20 10:00:00 4.9 9 Sudoeste 10 Oeste 0 -- -- 71
2019-11-20 09:00:00 3 11 Oeste 16 Oeste 0 -- -- 77
2019-11-20 08:00:00 2.1 14 Oeste 19 Oeste 0 -- -- 81
2019-11-20 07:00:00 3.1 10 Sudoeste 15 Sur 0 -- -- 76
2019-11-20 06:00:00 4.4 10 Sur 18 Sur 0 -- -- 70
2019-11-20 05:00:00 2.9 14 Sur 17 Sur 0 -- -- 78
2019-11-20 04:00:00 4 12 Sudoeste 15 Sudoeste 0 -- -- 74
2019-11-20 03:00:00 3.9 13 Sudoeste 21 Sudoeste 0 -- -- 75
2019-11-20 02:00:00 4.1 12 Sudoeste 20 Oeste 0 -- -- 76
2019-11-20 01:00:00 4.3 17 Sudoeste 23 Sudoeste 0 -- -- 73
2019-11-20 00:00:00 3.1 20 Oeste 22 Oeste 0 -- -- 77
2019-11-19 23:00:00 3.4 18 Oeste 21 Oeste 0 -- -- 75
2019-11-19 22:00:00 4.1 16 Oeste 19 Oeste 0 -- -- 71
2019-11-19 21:00:00 4.3 12 Sudoeste 19 Sur 0 -- -- 70
2019-11-19 20:00:00 4.4 11 Sudoeste 14 Sur 0 -- -- 76
2019-11-19 19:00:00 5.6 9 Sur 11 Sur 0 -- -- 72
2019-11-19 18:00:00 6.3 2 Nordeste 13 Nordeste 0 -- -- 69
2019-11-19 17:00:00 7.3 9 Norte 16 Norte 0 -- -- 61
2019-11-19 16:00:00 9 11 Noroeste 39 Noroeste 0 -- -- 56
2019-11-19 15:00:00 9.5 18 Oeste 35 Oeste 0 -- -- 53
2019-11-19 14:00:00 8.5 26 Oeste 42 Oeste 0 -- -- 56
2019-11-19 13:00:00 8.2 27 Oeste 41 Oeste 0 -- -- 60
2019-11-19 12:00:00 7.1 24 Noroeste 35 Noroeste 0 -- -- 66
2019-11-19 11:00:00 5.5 26 Oeste 33 Oeste 0 -- -- 72
2019-11-19 10:00:00 3.8 22 Oeste 29 Oeste 0 -- -- 77
2019-11-19 09:00:00 2 20 Oeste 27 Oeste 0 -- -- 81
2019-11-19 08:00:00 1.1 20 Oeste 31 Oeste 0 -- -- 82
2019-11-19 07:00:00 1.2 25 Oeste 34 Oeste 0 -- -- 82
2019-11-19 06:00:00 1.1 26 Oeste 30 Oeste 0 -- -- 82
2019-11-19 05:00:00 1.4 27 Oeste 33 Oeste 0 -- -- 80
2019-11-19 04:00:00 2 23 Oeste 32 Oeste 0 -- -- 78
2019-11-19 03:00:00 1.7 23 Oeste 35 Oeste 0 -- -- 81
2019-11-19 02:00:00 1.9 28 Oeste 36 Oeste 0 -- -- 82
2019-11-19 01:00:00 2 27 Oeste 44 Oeste 0 -- -- 83
2019-11-19 00:00:00 2.4 35 Oeste 61 Oeste 0 -- -- 84
2019-11-18 23:00:00 2.8 38 Oeste 52 Oeste 0 -- -- 80
2019-11-18 22:00:00 2.9 36 Oeste 60 Oeste 0 -- -- 79
2019-11-18 21:00:00 3 39 Oeste 62 Noroeste 0 -- -- 80
2019-11-18 20:00:00 3.2 39 Oeste 55 Oeste 0 -- -- 81
2019-11-18 19:00:00 3.6 40 Oeste 55 Oeste 0 -- -- 80
2019-11-18 18:00:00 4.1 40 Oeste 63 Noroeste 0 -- -- 76
2019-11-18 17:00:00 5.1 39 Noroeste 55 Oeste 0 -- -- 72
2019-11-18 16:00:00 5.3 36 Noroeste 55 Noroeste 0 -- -- 72
2019-11-18 15:00:00 5.5 36 Noroeste 56 Noroeste 0 -- -- 74
2019-11-18 14:00:00 5.4 39 Noroeste 59 Noroeste 0 -- -- 75
2019-11-18 13:00:00 5.2 39 Noroeste 63 Noroeste 0 -- -- 74
2019-11-18 12:00:00 5.2 42 Noroeste 64 Noroeste 0 -- -- 77
2019-11-18 11:00:00 5.2 40 Noroeste 67 Oeste 0 -- -- 77
2019-11-18 10:00:00 4.2 47 Noroeste 67 Noroeste 0 -- -- 80
2019-11-18 09:00:00 4 40 Noroeste 58 Oeste 0 -- -- 80
2019-11-18 08:00:00 3.9 39 Oeste 57 Oeste 0 -- -- 83
2019-11-18 07:00:00 3.9 32 Oeste 46 Oeste 0 -- -- 91
2019-11-18 06:00:00 4.2 33 Noroeste 49 Oeste 0 -- -- 93
2019-11-18 05:00:00 3.9 24 Noroeste 42 Noroeste 0.6 -- -- 95
2019-11-18 04:00:00 4.8 27 Oeste 41 Oeste 0.2 -- -- 89
2019-11-18 03:00:00 4.8 22 Oeste 26 Oeste 0 -- -- 91
2019-11-18 02:00:00 5 18 Oeste 22 Oeste 0 -- -- 91
2019-11-18 01:00:00 5.8 11 Sudoeste 15 Oeste 0 -- -- 89
2019-11-18 00:00:00 6 3 Oeste 23 Sudoeste 0 -- -- 89
2019-11-17 23:00:00 6.1 13 Sudoeste 19 Oeste 0 -- -- 89
2019-11-17 22:00:00 6 14 Oeste 17 Oeste 0.2 -- -- 91
2019-11-17 21:00:00 6.4 7 Oeste 27 Sudoeste 0 -- -- 87
2019-11-17 20:00:00 6.4 9 Noroeste 18 Noroeste 0 -- -- 89
2019-11-17 19:00:00 6.5 4 Noroeste 33 Oeste 0.6 -- -- 90
2019-11-17 18:00:00 6.6 27 Oeste 39 Oeste 0.8 -- -- 89
2019-11-17 17:00:00 6.9 28 Oeste 54 Oeste 1 -- -- 87
2019-11-17 16:00:00 8 26 Oeste 39 Oeste 1.2 -- -- 81
2019-11-17 15:00:00 10.9 20 Oeste 53 Oeste 0 -- -- 59
2019-11-17 14:00:00 9.9 43 Oeste 60 Oeste 0 -- -- 61
2019-11-17 13:00:00 9.7 44 Oeste 55 Oeste 0 -- -- 57
2019-11-17 12:00:00 8.9 30 Oeste 62 Oeste 0 -- -- 58
2019-11-17 11:00:00 7.2 33 Oeste 52 Oeste 0 -- -- 63
2019-11-17 10:00:00 5.6 44 Oeste 54 Oeste 0 -- -- 66
2019-11-17 09:00:00 4.6 42 Oeste 53 Sudoeste 0 -- -- 68
2019-11-17 08:00:00 3.4 45 Oeste 53 Oeste 0 -- -- 71
2019-11-17 07:00:00 3.3 42 Oeste 51 Oeste 0 -- -- 72
2019-11-17 06:00:00 2.8 43 Oeste 52 Oeste 0 -- -- 74
2019-11-17 05:00:00 3.2 39 Oeste 56 Oeste 0 -- -- 72
2019-11-17 04:00:00 3.5 38 Oeste 53 Oeste 0 -- -- 71
2019-11-17 03:00:00 3.6 42 Oeste 53 Oeste 0 -- -- 70
2019-11-17 02:00:00 3.7 38 Oeste 50 Oeste 0 -- -- 71
2019-11-17 01:00:00 4.1 42 Oeste 51 Oeste 0 -- -- 70
2019-11-17 00:00:00 4.5 43 Oeste 53 Oeste 0 -- -- 71
2019-11-16 23:00:00 5.1 42 Oeste 51 Oeste 0 -- -- 67
2019-11-16 22:00:00 4.9 36 Oeste 51 Oeste 0 -- -- 68
2019-11-16 21:00:00 4.7 39 Oeste 49 Oeste 0 -- -- 68
2019-11-16 20:00:00 4.6 36 Oeste 50 Oeste 0 -- -- 69
2019-11-16 19:00:00 4.6 39 Oeste 58 Oeste 0 -- -- 71
2019-11-16 18:00:00 5 39 Oeste 54 Oeste 0 -- -- 69
2019-11-16 17:00:00 6 30 Oeste 40 Oeste 0 -- -- 65
2019-11-16 16:00:00 7.4 25 Oeste 37 Oeste 0 -- -- 56
2019-11-16 15:00:00 8.1 31 Oeste 40 Oeste 0 -- -- 57
2019-11-16 14:00:00 7.7 21 Oeste 33 Oeste 0 -- -- 58
2019-11-16 13:00:00 7.2 18 Oeste 34 Oeste 0 -- -- 57
2019-11-16 12:00:00 5.9 21 Oeste 31 Oeste 0 -- -- 63
2019-11-16 11:00:00 4.5 20 Oeste 26 Oeste 0 -- -- 69
2019-11-16 10:00:00 2.9 15 Oeste 20 Oeste 0 -- -- 79
2019-11-16 09:00:00 1.1 15 Oeste 30 Oeste 0 -- -- 87
2019-11-16 08:00:00 0.8 25 Oeste 32 Oeste 0 -- -- 88
2019-11-16 07:00:00 0.6 23 Oeste 30 Oeste 0 -- -- 90
2019-11-16 06:00:00 0.9 24 Oeste 33 Oeste 0 -- -- 90
2019-11-16 05:00:00 0.9 24 Oeste 34 Oeste 0 -- -- 91
2019-11-16 04:00:00 1.3 19 Oeste 30 Oeste 0 -- -- 92
2019-11-16 03:00:00 1.6 22 Oeste 26 Oeste 0 -- -- 92
2019-11-16 02:00:00 1.9 14 Oeste 35 Oeste 0 -- -- 90
2019-11-16 01:00:00 2 25 Oeste 28 Oeste 0 -- -- 90
2019-11-16 00:00:00 2.7 19 Oeste 27 Oeste 0 -- -- 87